sensor_id;sensor_type;location;lat;lon;timestamp;P1;durP1;ratioP1;P2;durP2;ratioP2
14722;SDS011;7452;55.594;12.986;2023-05-29T00:02:02;8.30;;;3.00;;
14722;SDS011;7452;55.594;12.986;2023-05-29T00:04:31;17.80;;;4.17;;
14722;SDS011;7452;55.594;12.986;2023-05-29T00:06:58;13.90;;;3.60;;
14722;SDS011;7452;55.594;12.986;2023-05-29T00:09:25;14.73;;;3.50;;
14722;SDS011;7452;55.594;12.986;2023-05-29T00:11:53;14.10;;;3.70;;
14722;SDS011;7452;55.594;12.986;2023-05-29T00:14:20;14.70;;;4.00;;
14722;SDS011;7452;55.594;12.986;2023-05-29T00:16:47;13.30;;;3.93;;
14722;SDS011;7452;55.594;12.986;2023-05-29T00:19:15;13.30;;;3.83;;
14722;SDS011;7452;55.594;12.986;2023-05-29T00:21:44;10.33;;;3.27;;
14722;SDS011;7452;55.594;12.986;2023-05-29T00:24:12;12.10;;;3.23;;
14722;SDS011;7452;55.594;12.986;2023-05-29T00:26:40;10.93;;;3.57;;
14722;SDS011;7452;55.594;12.986;2023-05-29T00:29:07;16.53;;;3.53;;
14722;SDS011;7452;55.594;12.986;2023-05-29T00:31:34;14.03;;;4.07;;
14722;SDS011;7452;55.594;12.986;2023-05-29T00:34:02;10.03;;;3.33;;
14722;SDS011;7452;55.594;12.986;2023-05-29T00:36:29;14.43;;;3.73;;
14722;SDS011;7452;55.594;12.986;2023-05-29T00:38:58;13.27;;;3.50;;
14722;SDS011;7452;55.594;12.986;2023-05-29T00:41:25;13.43;;;3.80;;
14722;SDS011;7452;55.594;12.986;2023-05-29T00:43:54;11.67;;;3.37;;
14722;SDS011;7452;55.594;12.986;2023-05-29T00:46:20;12.73;;;3.67;;
14722;SDS011;7452;55.594;12.986;2023-05-29T00:48:48;12.70;;;4.07;;
14722;SDS011;7452;55.594;12.986;2023-05-29T00:51:15;11.20;;;3.23;;
14722;SDS011;7452;55.594;12.986;2023-05-29T00:53:43;15.90;;;4.60;;
14722;SDS011;7452;55.594;12.986;2023-05-29T00:56:12;15.10;;;4.00;;
14722;SDS011;7452;55.594;12.986;2023-05-29T00:58:40;13.23;;;3.77;;
14722;SDS011;7452;55.594;12.986;2023-05-29T01:01:08;16.47;;;3.67;;
14722;SDS011;7452;55.594;12.986;2023-05-29T01:03:35;13.53;;;4.03;;
14722;SDS011;7452;55.594;12.986;2023-05-29T01:06:02;11.80;;;3.90;;
14722;SDS011;7452;55.594;12.986;2023-05-29T01:08:32;17.87;;;3.90;;
14722;SDS011;7452;55.594;12.986;2023-05-29T01:11:00;14.77;;;4.00;;
14722;SDS011;7452;55.594;12.986;2023-05-29T01:13:34;17.70;;;4.00;;
14722;SDS011;7452;55.594;12.986;2023-05-29T01:16:04;12.73;;;4.00;;
14722;SDS011;7452;55.594;12.986;2023-05-29T01:18:39;14.17;;;3.77;;
14722;SDS011;7452;55.594;12.986;2023-05-29T01:21:14;14.17;;;4.03;;
14722;SDS011;7452;55.594;12.986;2023-05-29T01:23:53;16.23;;;4.30;;
14722;SDS011;7452;55.594;12.986;2023-05-29T01:26:42;17.37;;;4.37;;
14722;SDS011;7452;55.594;12.986;2023-05-29T01:29:13;14.43;;;4.07;;
14722;SDS011;7452;55.594;12.986;2023-05-29T01:31:43;14.03;;;3.80;;
14722;SDS011;7452;55.594;12.986;2023-05-29T01:34:11;17.73;;;4.87;;
14722;SDS011;7452;55.594;12.986;2023-05-29T01:36:38;18.00;;;4.47;;
14722;SDS011;7452;55.594;12.986;2023-05-29T01:39:06;14.70;;;3.93;;
14722;SDS011;7452;55.594;12.986;2023-05-29T01:41:34;15.53;;;4.30;;
14722;SDS011;7452;55.594;12.986;2023-05-29T01:44:04;18.40;;;3.67;;
14722;SDS011;7452;55.594;12.986;2023-05-29T01:46:33;16.03;;;4.20;;
14722;SDS011;7452;55.594;12.986;2023-05-29T01:49:01;14.40;;;3.63;;
14722;SDS011;7452;55.594;12.986;2023-05-29T01:51:29;14.10;;;4.00;;
14722;SDS011;7452;55.594;12.986;2023-05-29T01:53:56;16.10;;;3.97;;
14722;SDS011;7452;55.594;12.986;2023-05-29T01:56:24;15.10;;;3.93;;
14722;SDS011;7452;55.594;12.986;2023-05-29T01:58:52;15.77;;;4.17;;
14722;SDS011;7452;55.594;12.986;2023-05-29T02:01:21;17.53;;;4.03;;
14722;SDS011;7452;55.594;12.986;2023-05-29T02:03:48;13.10;;;3.80;;
14722;SDS011;7452;55.594;12.986;2023-05-29T02:06:16;17.50;;;3.90;;
14722;SDS011;7452;55.594;12.986;2023-05-29T02:08:43;13.43;;;4.23;;
14722;SDS011;7452;55.594;12.986;2023-05-29T02:11:10;18.23;;;4.17;;
14722;SDS011;7452;55.594;12.986;2023-05-29T02:13:37;17.33;;;4.00;;
14722;SDS011;7452;55.594;12.986;2023-05-29T02:16:04;15.37;;;4.50;;
14722;SDS011;7452;55.594;12.986;2023-05-29T02:18:33;15.77;;;3.97;;
14722;SDS011;7452;55.594;12.986;2023-05-29T02:21:00;17.40;;;4.40;;
14722;SDS011;7452;55.594;12.986;2023-05-29T02:23:28;16.73;;;4.00;;
14722;SDS011;7452;55.594;12.986;2023-05-29T02:25:55;20.57;;;4.27;;
14722;SDS011;7452;55.594;12.986;2023-05-29T02:28:22;16.00;;;4.00;;
14722;SDS011;7452;55.594;12.986;2023-05-29T02:30:51;17.63;;;4.23;;
14722;SDS011;7452;55.594;12.986;2023-05-29T02:33:18;13.20;;;3.73;;
14722;SDS011;7452;55.594;12.986;2023-05-29T02:35:47;15.30;;;3.90;;
14722;SDS011;7452;55.594;12.986;2023-05-29T02:38:14;12.57;;;3.63;;
14722;SDS011;7452;55.594;12.986;2023-05-29T02:40:41;14.10;;;4.20;;
14722;SDS011;7452;55.594;12.986;2023-05-29T02:43:08;15.77;;;4.53;;
14722;SDS011;7452;55.594;12.986;2023-05-29T02:45:38;14.37;;;4.10;;
14722;SDS011;7452;55.594;12.986;2023-05-29T02:48:05;14.10;;;4.10;;
14722;SDS011;7452;55.594;12.986;2023-05-29T02:50:32;12.33;;;3.83;;
14722;SDS011;7452;55.594;12.986;2023-05-29T02:53:04;14.47;;;4.30;;
14722;SDS011;7452;55.594;12.986;2023-05-29T02:55:33;18.60;;;4.07;;
14722;SDS011;7452;55.594;12.986;2023-05-29T02:58:03;12.40;;;3.80;;
14722;SDS011;7452;55.594;12.986;2023-05-29T03:00:30;17.13;;;3.90;;
14722;SDS011;7452;55.594;12.986;2023-05-29T03:02:57;17.63;;;4.07;;
14722;SDS011;7452;55.594;12.986;2023-05-29T03:05:25;13.13;;;4.00;;
14722;SDS011;7452;55.594;12.986;2023-05-29T03:07:52;18.60;;;4.40;;
14722;SDS011;7452;55.594;12.986;2023-05-29T03:10:20;14.63;;;4.13;;
14722;SDS011;7452;55.594;12.986;2023-05-29T03:12:47;14.83;;;4.23;;
14722;SDS011;7452;55.594;12.986;2023-05-29T03:15:14;15.00;;;4.67;;
14722;SDS011;7452;55.594;12.986;2023-05-29T03:17:44;16.10;;;4.57;;
14722;SDS011;7452;55.594;12.986;2023-05-29T03:20:11;16.00;;;4.07;;
14722;SDS011;7452;55.594;12.986;2023-05-29T03:22:40;11.77;;;4.33;;
14722;SDS011;7452;55.594;12.986;2023-05-29T03:25:08;9.87;;;3.60;;
14722;SDS011;7452;55.594;12.986;2023-05-29T03:27:36;15.10;;;4.80;;
14722;SDS011;7452;55.594;12.986;2023-05-29T03:30:04;13.23;;;3.57;;
14722;SDS011;7452;55.594;12.986;2023-05-29T03:32:31;14.90;;;3.77;;
14722;SDS011;7452;55.594;12.986;2023-05-29T03:34:58;13.07;;;3.97;;
14722;SDS011;7452;55.594;12.986;2023-05-29T03:37:25;17.70;;;4.33;;
14722;SDS011;7452;55.594;12.986;2023-05-29T03:39:52;16.87;;;3.57;;
14722;SDS011;7452;55.594;12.986;2023-05-29T03:42:20;15.70;;;3.47;;
14722;SDS011;7452;55.594;12.986;2023-05-29T03:44:48;18.40;;;4.00;;
14722;SDS011;7452;55.594;12.986;2023-05-29T03:47:15;13.00;;;4.13;;
14722;SDS011;7452;55.594;12.986;2023-05-29T03:49:42;14.47;;;3.77;;
14722;SDS011;7452;55.594;12.986;2023-05-29T03:52:09;15.27;;;3.90;;
14722;SDS011;7452;55.594;12.986;2023-05-29T03:54:36;16.80;;;4.63;;
14722;SDS011;7452;55.594;12.986;2023-05-29T03:57:03;12.97;;;4.00;;
14722;SDS011;7452;55.594;12.986;2023-05-29T03:59:31;11.87;;;3.40;;
14722;SDS011;7452;55.594;12.986;2023-05-29T04:02:00;14.30;;;3.80;;
14722;SDS011;7452;55.594;12.986;2023-05-29T04:04:27;18.20;;;4.17;;
14722;SDS011;7452;55.594;12.986;2023-05-29T04:06:54;12.03;;;3.83;;
14722;SDS011;7452;55.594;12.986;2023-05-29T04:09:21;14.40;;;4.03;;
14722;SDS011;7452;55.594;12.986;2023-05-29T04:11:48;14.03;;;4.10;;
14722;SDS011;7452;55.594;12.986;2023-05-29T04:14:17;14.63;;;3.60;;
14722;SDS011;7452;55.594;12.986;2023-05-29T04:16:44;12.20;;;3.93;;
14722;SDS011;7452;55.594;12.986;2023-05-29T04:19:12;14.83;;;4.30;;
14722;SDS011;7452;55.594;12.986;2023-05-29T04:21:39;12.00;;;3.80;;
14722;SDS011;7452;55.594;12.986;2023-05-29T04:24:06;14.10;;;4.13;;
14722;SDS011;7452;55.594;12.986;2023-05-29T04:26:33;12.97;;;3.80;;
14722;SDS011;7452;55.594;12.986;2023-05-29T04:29:00;15.10;;;3.90;;
14722;SDS011;7452;55.594;12.986;2023-05-29T04:31:28;16.07;;;4.27;;
14722;SDS011;7452;55.594;12.986;2023-05-29T04:33:55;14.67;;;4.63;;
14722;SDS011;7452;55.594;12.986;2023-05-29T04:36:24;13.47;;;4.10;;
14722;SDS011;7452;55.594;12.986;2023-05-29T04:38:52;14.30;;;4.03;;
14722;SDS011;7452;55.594;12.986;2023-05-29T04:41:19;14.93;;;3.77;;
14722;SDS011;7452;55.594;12.986;2023-05-29T04:43:48;14.60;;;4.10;;
14722;SDS011;7452;55.594;12.986;2023-05-29T04:46:17;13.67;;;3.67;;
14722;SDS011;7452;55.594;12.986;2023-05-29T04:48:43;16.23;;;4.17;;
14722;SDS011;7452;55.594;12.986;2023-05-29T04:51:11;17.17;;;4.27;;
14722;SDS011;7452;55.594;12.986;2023-05-29T04:53:39;12.33;;;3.73;;
14722;SDS011;7452;55.594;12.986;2023-05-29T04:56:10;12.73;;;3.70;;
14722;SDS011;7452;55.594;12.986;2023-05-29T04:58:36;17.77;;;4.53;;
14722;SDS011;7452;55.594;12.986;2023-05-29T05:01:04;15.23;;;4.43;;
14722;SDS011;7452;55.594;12.986;2023-05-29T05:03:33;12.83;;;3.33;;
14722;SDS011;7452;55.594;12.986;2023-05-29T05:06:00;15.40;;;4.17;;
14722;SDS011;7452;55.594;12.986;2023-05-29T05:08:27;13.87;;;4.00;;
14722;SDS011;7452;55.594;12.986;2023-05-29T05:10:56;12.23;;;4.00;;
14722;SDS011;7452;55.594;12.986;2023-05-29T05:13:26;15.60;;;4.27;;
14722;SDS011;7452;55.594;12.986;2023-05-29T05:15:53;16.23;;;4.70;;
14722;SDS011;7452;55.594;12.986;2023-05-29T05:18:21;19.87;;;3.93;;
14722;SDS011;7452;55.594;12.986;2023-05-29T05:20:48;15.43;;;4.63;;
14722;SDS011;7452;55.594;12.986;2023-05-29T05:23:15;14.93;;;4.23;;
14722;SDS011;7452;55.594;12.986;2023-05-29T05:25:42;15.17;;;3.97;;
14722;SDS011;7452;55.594;12.986;2023-05-29T05:28:10;12.63;;;3.97;;
14722;SDS011;7452;55.594;12.986;2023-05-29T05:30:38;20.00;;;4.93;;
14722;SDS011;7452;55.594;12.986;2023-05-29T05:33:05;14.70;;;3.90;;
14722;SDS011;7452;55.594;12.986;2023-05-29T05:35:35;17.20;;;4.80;;
14722;SDS011;7452;55.594;12.986;2023-05-29T05:38:02;21.90;;;4.87;;
14722;SDS011;7452;55.594;12.986;2023-05-29T05:40:29;15.57;;;4.37;;
14722;SDS011;7452;55.594;12.986;2023-05-29T05:42:56;16.50;;;4.40;;
14722;SDS011;7452;55.594;12.986;2023-05-29T05:45:24;18.57;;;4.63;;
14722;SDS011;7452;55.594;12.986;2023-05-29T05:47:51;14.33;;;4.13;;
14722;SDS011;7452;55.594;12.986;2023-05-29T05:50:18;16.97;;;3.97;;
14722;SDS011;7452;55.594;12.986;2023-05-29T05:52:46;15.20;;;3.90;;
14722;SDS011;7452;55.594;12.986;2023-05-29T05:55:13;17.40;;;4.67;;
14722;SDS011;7452;55.594;12.986;2023-05-29T05:57:40;16.67;;;4.33;;
14722;SDS011;7452;55.594;12.986;2023-05-29T06:00:08;17.47;;;5.03;;
14722;SDS011;7452;55.594;12.986;2023-05-29T06:02:38;14.73;;;4.40;;
14722;SDS011;7452;55.594;12.986;2023-05-29T06:05:07;17.23;;;4.63;;
14722;SDS011;7452;55.594;12.986;2023-05-29T06:07:34;18.07;;;4.47;;
14722;SDS011;7452;55.594;12.986;2023-05-29T06:10:02;16.07;;;4.47;;
14722;SDS011;7452;55.594;12.986;2023-05-29T06:12:29;14.97;;;3.90;;
14722;SDS011;7452;55.594;12.986;2023-05-29T06:14:59;14.50;;;3.90;;
14722;SDS011;7452;55.594;12.986;2023-05-29T06:17:27;19.67;;;4.43;;
14722;SDS011;7452;55.594;12.986;2023-05-29T06:19:56;13.93;;;4.03;;
14722;SDS011;7452;55.594;12.986;2023-05-29T06:22:23;20.90;;;4.70;;
14722;SDS011;7452;55.594;12.986;2023-05-29T06:24:50;16.00;;;4.87;;
14722;SDS011;7452;55.594;12.986;2023-05-29T06:27:17;13.33;;;4.27;;
14722;SDS011;7452;55.594;12.986;2023-05-29T06:29:45;15.17;;;3.87;;
14722;SDS011;7452;55.594;12.986;2023-05-29T06:32:11;14.47;;;4.07;;
14722;SDS011;7452;55.594;12.986;2023-05-29T06:34:38;13.37;;;4.37;;
14722;SDS011;7452;55.594;12.986;2023-05-29T06:37:07;11.13;;;4.37;;
14722;SDS011;7452;55.594;12.986;2023-05-29T06:39:35;16.43;;;4.27;;
14722;SDS011;7452;55.594;12.986;2023-05-29T06:42:02;12.13;;;3.90;;
14722;SDS011;7452;55.594;12.986;2023-05-29T06:44:29;15.80;;;4.17;;
14722;SDS011;7452;55.594;12.986;2023-05-29T06:46:56;14.47;;;4.20;;
14722;SDS011;7452;55.594;12.986;2023-05-29T06:49:23;20.20;;;4.53;;
14722;SDS011;7452;55.594;12.986;2023-05-29T06:51:50;15.37;;;4.30;;
14722;SDS011;7452;55.594;12.986;2023-05-29T06:54:19;14.47;;;4.50;;
14722;SDS011;7452;55.594;12.986;2023-05-29T06:56:46;14.90;;;4.47;;
14722;SDS011;7452;55.594;12.986;2023-05-29T06:59:13;17.00;;;4.53;;
14722;SDS011;7452;55.594;12.986;2023-05-29T07:01:40;13.13;;;4.03;;
14722;SDS011;7452;55.594;12.986;2023-05-29T07:04:07;15.00;;;3.80;;
14722;SDS011;7452;55.594;12.986;2023-05-29T07:06:34;15.40;;;4.67;;
14722;SDS011;7452;55.594;12.986;2023-05-29T07:11:28;16.73;;;4.20;;
14722;SDS011;7452;55.594;12.986;2023-05-29T07:13:55;14.87;;;4.70;;
14722;SDS011;7452;55.594;12.986;2023-05-29T07:16:21;15.43;;;4.13;;
14722;SDS011;7452;55.594;12.986;2023-05-29T07:18:48;14.07;;;3.63;;
14722;SDS011;7452;55.594;12.986;2023-05-29T07:21:16;16.23;;;3.93;;
14722;SDS011;7452;55.594;12.986;2023-05-29T07:23:43;15.27;;;4.10;;
14722;SDS011;7452;55.594;12.986;2023-05-29T07:26:10;16.03;;;4.50;;
14722;SDS011;7452;55.594;12.986;2023-05-29T07:28:39;12.33;;;4.30;;
14722;SDS011;7452;55.594;12.986;2023-05-29T07:31:06;18.10;;;4.60;;
14722;SDS011;7452;55.594;12.986;2023-05-29T07:33:33;13.97;;;3.93;;
14722;SDS011;7452;55.594;12.986;2023-05-29T07:36:00;14.13;;;4.13;;
14722;SDS011;7452;55.594;12.986;2023-05-29T07:38:27;14.80;;;4.30;;
14722;SDS011;7452;55.594;12.986;2023-05-29T07:40:55;11.87;;;3.73;;
14722;SDS011;7452;55.594;12.986;2023-05-29T07:43:22;14.53;;;4.17;;
14722;SDS011;7452;55.594;12.986;2023-05-29T07:45:51;11.30;;;4.17;;
14722;SDS011;7452;55.594;12.986;2023-05-29T07:48:20;14.43;;;4.43;;
14722;SDS011;7452;55.594;12.986;2023-05-29T07:50:47;10.83;;;3.70;;
14722;SDS011;7452;55.594;12.986;2023-05-29T07:53:14;12.73;;;4.00;;
14722;SDS011;7452;55.594;12.986;2023-05-29T07:55:41;17.50;;;4.13;;
14722;SDS011;7452;55.594;12.986;2023-05-29T07:58:09;14.53;;;3.87;;
14722;SDS011;7452;55.594;12.986;2023-05-29T08:00:36;12.83;;;4.10;;
14722;SDS011;7452;55.594;12.986;2023-05-29T08:03:05;14.20;;;3.73;;
14722;SDS011;7452;55.594;12.986;2023-05-29T08:05:33;13.97;;;4.30;;
14722;SDS011;7452;55.594;12.986;2023-05-29T08:08:00;11.13;;;3.50;;
14722;SDS011;7452;55.594;12.986;2023-05-29T08:10:27;15.20;;;4.43;;
14722;SDS011;7452;55.594;12.986;2023-05-29T08:12:54;12.70;;;4.00;;
14722;SDS011;7452;55.594;12.986;2023-05-29T08:15:21;15.17;;;4.03;;
14722;SDS011;7452;55.594;12.986;2023-05-29T08:17:49;10.10;;;3.23;;
14722;SDS011;7452;55.594;12.986;2023-05-29T08:20:17;9.40;;;3.87;;
14722;SDS011;7452;55.594;12.986;2023-05-29T08:22:45;11.60;;;3.70;;
14722;SDS011;7452;55.594;12.986;2023-05-29T08:25:12;11.07;;;3.13;;
14722;SDS011;7452;55.594;12.986;2023-05-29T08:27:39;10.47;;;3.37;;
14722;SDS011;7452;55.594;12.986;2023-05-29T08:30:07;9.57;;;3.47;;
14722;SDS011;7452;55.594;12.986;2023-05-29T08:32:34;19.93;;;4.20;;
14722;SDS011;7452;55.594;12.986;2023-05-29T08:35:01;13.77;;;3.20;;
14722;SDS011;7452;55.594;12.986;2023-05-29T08:37:30;11.43;;;3.53;;
14722;SDS011;7452;55.594;12.986;2023-05-29T08:39:57;11.70;;;3.20;;
14722;SDS011;7452;55.594;12.986;2023-05-29T08:42:26;9.80;;;3.83;;
14722;SDS011;7452;55.594;12.986;2023-05-29T08:44:58;13.27;;;4.30;;
14722;SDS011;7452;55.594;12.986;2023-05-29T08:47:30;12.60;;;3.80;;
14722;SDS011;7452;55.594;12.986;2023-05-29T08:50:00;7.97;;;2.83;;
14722;SDS011;7452;55.594;12.986;2023-05-29T08:52:29;8.73;;;3.40;;
14722;SDS011;7452;55.594;12.986;2023-05-29T08:55:01;10.27;;;3.43;;
14722;SDS011;7452;55.594;12.986;2023-05-29T08:57:29;9.40;;;3.17;;
14722;SDS011;7452;55.594;12.986;2023-05-29T08:59:56;11.13;;;4.00;;
14722;SDS011;7452;55.594;12.986;2023-05-29T09:02:24;10.63;;;3.63;;
14722;SDS011;7452;55.594;12.986;2023-05-29T09:04:52;12.23;;;3.57;;
14722;SDS011;7452;55.594;12.986;2023-05-29T09:07:21;10.17;;;3.30;;
14722;SDS011;7452;55.594;12.986;2023-05-29T09:09:52;12.50;;;3.30;;
14722;SDS011;7452;55.594;12.986;2023-05-29T09:12:19;11.20;;;3.10;;
14722;SDS011;7452;55.594;12.986;2023-05-29T09:14:47;9.03;;;3.33;;
14722;SDS011;7452;55.594;12.986;2023-05-29T09:17:14;14.67;;;3.20;;
14722;SDS011;7452;55.594;12.986;2023-05-29T09:19:41;10.53;;;3.30;;
14722;SDS011;7452;55.594;12.986;2023-05-29T09:22:11;9.97;;;3.30;;
14722;SDS011;7452;55.594;12.986;2023-05-29T09:24:40;8.37;;;3.13;;
14722;SDS011;7452;55.594;12.986;2023-05-29T09:27:09;9.23;;;3.07;;
14722;SDS011;7452;55.594;12.986;2023-05-29T09:29:38;11.03;;;3.00;;
14722;SDS011;7452;55.594;12.986;2023-05-29T09:32:06;6.87;;;2.90;;
14722;SDS011;7452;55.594;12.986;2023-05-29T09:34:35;8.50;;;2.33;;
14722;SDS011;7452;55.594;12.986;2023-05-29T09:37:02;10.07;;;2.90;;
14722;SDS011;7452;55.594;12.986;2023-05-29T09:39:33;8.37;;;2.60;;
14722;SDS011;7452;55.594;12.986;2023-05-29T09:42:11;9.73;;;3.27;;
14722;SDS011;7452;55.594;12.986;2023-05-29T09:44:39;7.23;;;2.70;;
14722;SDS011;7452;55.594;12.986;2023-05-29T09:47:06;9.30;;;2.87;;
14722;SDS011;7452;55.594;12.986;2023-05-29T09:49:33;8.50;;;3.20;;
14722;SDS011;7452;55.594;12.986;2023-05-29T09:52:03;9.20;;;2.97;;
14722;SDS011;7452;55.594;12.986;2023-05-29T09:54:32;10.03;;;3.93;;
14722;SDS011;7452;55.594;12.986;2023-05-29T09:57:04;9.77;;;2.80;;
14722;SDS011;7452;55.594;12.986;2023-05-29T09:59:34;9.60;;;2.80;;
14722;SDS011;7452;55.594;12.986;2023-05-29T10:02:02;8.40;;;2.70;;
14722;SDS011;7452;55.594;12.986;2023-05-29T10:04:32;9.87;;;2.80;;
14722;SDS011;7452;55.594;12.986;2023-05-29T10:07:00;8.10;;;2.83;;
14722;SDS011;7452;55.594;12.986;2023-05-29T10:09:31;8.90;;;2.80;;
14722;SDS011;7452;55.594;12.986;2023-05-29T10:12:01;6.37;;;2.50;;
14722;SDS011;7452;55.594;12.986;2023-05-29T10:14:34;6.03;;;2.33;;
14722;SDS011;7452;55.594;12.986;2023-05-29T10:17:02;6.73;;;2.13;;
14722;SDS011;7452;55.594;12.986;2023-05-29T10:19:33;4.10;;;1.53;;
14722;SDS011;7452;55.594;12.986;2023-05-29T10:22:04;2.77;;;1.30;;
14722;SDS011;7452;55.594;12.986;2023-05-29T10:24:32;4.57;;;1.40;;
14722;SDS011;7452;55.594;12.986;2023-05-29T10:27:02;4.57;;;1.47;;
14722;SDS011;7452;55.594;12.986;2023-05-29T10:29:34;4.27;;;1.17;;
14722;SDS011;7452;55.594;12.986;2023-05-29T10:32:07;3.53;;;1.17;;
14722;SDS011;7452;55.594;12.986;2023-05-29T10:34:46;3.20;;;1.23;;
14722;SDS011;7452;55.594;12.986;2023-05-29T10:37:25;4.20;;;1.25;;
14722;SDS011;7452;55.594;12.986;2023-05-29T10:40:05;3.00;;;1.10;;
14722;SDS011;7452;55.594;12.986;2023-05-29T10:42:41;2.08;;;1.00;;
14722;SDS011;7452;55.594;12.986;2023-05-29T10:51:02;2.33;;;0.93;;
14722;SDS011;7452;55.594;12.986;2023-05-29T10:53:32;3.42;;;0.90;;
14722;SDS011;7452;55.594;12.986;2023-05-29T10:55:59;3.13;;;1.10;;
14722;SDS011;7452;55.594;12.986;2023-05-29T10:58:28;3.92;;;1.20;;
14722;SDS011;7452;55.594;12.986;2023-05-29T11:00:58;2.97;;;1.00;;
14722;SDS011;7452;55.594;12.986;2023-05-29T11:03:25;2.80;;;0.88;;
14722;SDS011;7452;55.594;12.986;2023-05-29T11:05:57;5.35;;;1.00;;
14722;SDS011;7452;55.594;12.986;2023-05-29T11:08:32;2.03;;;0.93;;
14722;SDS011;7452;55.594;12.986;2023-05-29T11:11:03;4.60;;;1.40;;
14722;SDS011;7452;55.594;12.986;2023-05-29T11:13:32;1.80;;;0.90;;
14722;SDS011;7452;55.594;12.986;2023-05-29T11:16:08;3.75;;;1.05;;
14722;SDS011;7452;55.594;12.986;2023-05-29T11:18:40;2.05;;;0.82;;
14722;SDS011;7452;55.594;12.986;2023-05-29T11:41:18;6.68;;;1.20;;
14722;SDS011;7452;55.594;12.986;2023-05-29T11:43:57;2.15;;;0.85;;
14722;SDS011;7452;55.594;12.986;2023-05-29T11:46:26;4.82;;;1.20;;
14722;SDS011;7452;55.594;12.986;2023-05-29T11:48:56;1.88;;;1.05;;
14722;SDS011;7452;55.594;12.986;2023-05-29T11:51:23;6.18;;;1.20;;
14722;SDS011;7452;55.594;12.986;2023-05-29T11:53:50;1.92;;;0.90;;
14722;SDS011;7452;55.594;12.986;2023-05-29T11:56:24;2.00;;;1.25;;
14722;SDS011;7452;55.594;12.986;2023-05-29T11:58:51;3.55;;;1.00;;
14722;SDS011;7452;55.594;12.986;2023-05-29T12:01:21;2.28;;;1.08;;
14722;SDS011;7452;55.594;12.986;2023-05-29T12:03:50;3.58;;;1.13;;
14722;SDS011;7452;55.594;12.986;2023-05-29T12:06:30;3.53;;;1.33;;
14722;SDS011;7452;55.594;12.986;2023-05-29T12:08:58;1.52;;;0.80;;
14722;SDS011;7452;55.594;12.986;2023-05-29T12:11:27;2.53;;;0.90;;
14722;SDS011;7452;55.594;12.986;2023-05-29T12:13:55;4.35;;;1.00;;
14722;SDS011;7452;55.594;12.986;2023-05-29T12:16:22;2.65;;;1.00;;
14722;SDS011;7452;55.594;12.986;2023-05-29T12:18:51;2.50;;;0.90;;
14722;SDS011;7452;55.594;12.986;2023-05-29T12:21:21;6.90;;;1.17;;
14722;SDS011;7452;55.594;12.986;2023-05-29T12:23:51;3.30;;;1.20;;
14722;SDS011;7452;55.594;12.986;2023-05-29T12:26:18;1.70;;;0.95;;
14722;SDS011;7452;55.594;12.986;2023-05-29T12:28:49;2.58;;;0.82;;
14722;SDS011;7452;55.594;12.986;2023-05-29T12:31:26;2.10;;;1.02;;
14722;SDS011;7452;55.594;12.986;2023-05-29T12:33:57;3.38;;;1.10;;
14722;SDS011;7452;55.594;12.986;2023-05-29T12:36:26;3.30;;;0.80;;
14722;SDS011;7452;55.594;12.986;2023-05-29T12:38:52;2.90;;;0.88;;
14722;SDS011;7452;55.594;12.986;2023-05-29T12:44:09;3.05;;;1.08;;
14722;SDS011;7452;55.594;12.986;2023-05-29T12:46:36;3.05;;;1.00;;
14722;SDS011;7452;55.594;12.986;2023-05-29T12:49:14;3.42;;;1.10;;
14722;SDS011;7452;55.594;12.986;2023-05-29T12:51:41;4.20;;;1.00;;
14722;SDS011;7452;55.594;12.986;2023-05-29T12:54:09;3.17;;;0.73;;
14722;SDS011;7452;55.594;12.986;2023-05-29T12:56:36;3.08;;;0.88;;
14722;SDS011;7452;55.594;12.986;2023-05-29T12:59:05;4.30;;;1.10;;
14722;SDS011;7452;55.594;12.986;2023-05-29T13:01:35;2.13;;;0.90;;
14722;SDS011;7452;55.594;12.986;2023-05-29T13:04:03;2.75;;;0.80;;
14722;SDS011;7452;55.594;12.986;2023-05-29T13:06:31;2.33;;;1.00;;
14722;SDS011;7452;55.594;12.986;2023-05-29T13:08:58;2.35;;;0.95;;
14722;SDS011;7452;55.594;12.986;2023-05-29T13:11:25;2.20;;;0.80;;
14722;SDS011;7452;55.594;12.986;2023-05-29T13:13:52;3.40;;;0.85;;
14722;SDS011;7452;55.594;12.986;2023-05-29T13:16:19;2.30;;;1.00;;
14722;SDS011;7452;55.594;12.986;2023-05-29T13:18:48;2.90;;;1.05;;
14722;SDS011;7452;55.594;12.986;2023-05-29T13:21:15;3.05;;;1.00;;
14722;SDS011;7452;55.594;12.986;2023-05-29T13:23:42;2.42;;;0.98;;
14722;SDS011;7452;55.594;12.986;2023-05-29T13:26:09;1.42;;;0.90;;
14722;SDS011;7452;55.594;12.986;2023-05-29T13:28:36;1.88;;;0.80;;
14722;SDS011;7452;55.594;12.986;2023-05-29T13:31:05;2.90;;;0.93;;
14722;SDS011;7452;55.594;12.986;2023-05-29T13:33:33;4.15;;;1.23;;
14722;SDS011;7452;55.594;12.986;2023-05-29T13:36:01;3.67;;;1.00;;
14722;SDS011;7452;55.594;12.986;2023-05-29T13:38:28;3.63;;;1.00;;
14722;SDS011;7452;55.594;12.986;2023-05-29T13:40:55;4.75;;;1.10;;
14722;SDS011;7452;55.594;12.986;2023-05-29T13:43:22;3.42;;;1.05;;
14722;SDS011;7452;55.594;12.986;2023-05-29T13:45:50;2.25;;;0.90;;
14722;SDS011;7452;55.594;12.986;2023-05-29T13:48:16;1.15;;;0.73;;
14722;SDS011;7452;55.594;12.986;2023-05-29T13:50:44;1.05;;;0.80;;
14722;SDS011;7452;55.594;12.986;2023-05-29T13:53:12;3.72;;;1.02;;
14722;SDS011;7452;55.594;12.986;2023-05-29T13:55:39;2.30;;;0.93;;
14722;SDS011;7452;55.594;12.986;2023-05-29T13:58:06;1.17;;;0.88;;
14722;SDS011;7452;55.594;12.986;2023-05-29T14:00:36;3.17;;;1.05;;
14722;SDS011;7452;55.594;12.986;2023-05-29T14:03:05;3.60;;;1.30;;
14722;SDS011;7452;55.594;12.986;2023-05-29T14:05:33;2.63;;;1.13;;
14722;SDS011;7452;55.594;12.986;2023-05-29T14:08:03;4.82;;;1.20;;
14722;SDS011;7452;55.594;12.986;2023-05-29T14:10:35;3.30;;;1.30;;
14722;SDS011;7452;55.594;12.986;2023-05-29T14:13:02;3.40;;;1.00;;
14722;SDS011;7452;55.594;12.986;2023-05-29T14:15:29;2.20;;;1.10;;
14722;SDS011;7452;55.594;12.986;2023-05-29T14:17:56;3.22;;;1.08;;
14722;SDS011;7452;55.594;12.986;2023-05-29T14:20:23;2.78;;;1.40;;
14722;SDS011;7452;55.594;12.986;2023-05-29T14:22:50;2.95;;;1.40;;
14722;SDS011;7452;55.594;12.986;2023-05-29T14:25:17;2.85;;;1.30;;
14722;SDS011;7452;55.594;12.986;2023-05-29T14:27:48;1.95;;;1.05;;
14722;SDS011;7452;55.594;12.986;2023-05-29T14:30:15;2.65;;;1.20;;
14722;SDS011;7452;55.594;12.986;2023-05-29T14:32:42;2.88;;;1.40;;
14722;SDS011;7452;55.594;12.986;2023-05-29T14:35:09;8.07;;;1.50;;
14722;SDS011;7452;55.594;12.986;2023-05-29T14:37:36;7.07;;;1.37;;
14722;SDS011;7452;55.594;12.986;2023-05-29T14:40:03;4.80;;;3.93;;
14722;SDS011;7452;55.594;12.986;2023-05-29T14:42:31;3.50;;;1.40;;
14722;SDS011;7452;55.594;12.986;2023-05-29T14:45:00;5.97;;;1.60;;
14722;SDS011;7452;55.594;12.986;2023-05-29T14:47:27;2.87;;;1.20;;
14722;SDS011;7452;55.594;12.986;2023-05-29T14:49:54;1.67;;;1.20;;
14722;SDS011;7452;55.594;12.986;2023-05-29T14:52:24;3.10;;;1.60;;
14722;SDS011;7452;55.594;12.986;2023-05-29T14:54:51;4.93;;;1.60;;
14722;SDS011;7452;55.594;12.986;2023-05-29T14:57:18;3.53;;;1.30;;
14722;SDS011;7452;55.594;12.986;2023-05-29T14:59:45;3.47;;;1.27;;
14722;SDS011;7452;55.594;12.986;2023-05-29T15:02:13;5.43;;;1.47;;
14722;SDS011;7452;55.594;12.986;2023-05-29T15:04:40;2.50;;;1.50;;
14722;SDS011;7452;55.594;12.986;2023-05-29T15:07:07;2.33;;;1.53;;
14722;SDS011;7452;55.594;12.986;2023-05-29T15:09:34;4.40;;;1.27;;
14722;SDS011;7452;55.594;12.986;2023-05-29T15:12:01;2.87;;;1.37;;
14722;SDS011;7452;55.594;12.986;2023-05-29T15:14:29;4.40;;;1.30;;
14722;SDS011;7452;55.594;12.986;2023-05-29T15:16:56;3.27;;;1.50;;
14722;SDS011;7452;55.594;12.986;2023-05-29T15:19:24;5.80;;;1.60;;